sensor_id;sensor_type;location;lat;lon;timestamp;P1;durP1;ratioP1;P2;durP2;ratioP2
84818;SDS011;75053;51.080;13.712;2024-01-10T00:01:43;65.50;;;28.80;;
84818;SDS011;75053;51.080;13.712;2024-01-10T00:04:08;67.07;;;30.30;;
84818;SDS011;75053;51.080;13.712;2024-01-10T00:06:34;73.50;;;29.37;;
84818;SDS011;75053;51.080;13.712;2024-01-10T00:08:59;76.23;;;30.50;;
84818;SDS011;75053;51.080;13.712;2024-01-10T00:11:25;69.70;;;28.70;;
84818;SDS011;75053;51.080;13.712;2024-01-10T00:13:50;61.60;;;27.13;;
84818;SDS011;75053;51.080;13.712;2024-01-10T00:16:16;65.07;;;28.57;;
84818;SDS011;75053;51.080;13.712;2024-01-10T00:18:45;62.33;;;29.90;;
84818;SDS011;75053;51.080;13.712;2024-01-10T00:21:11;64.07;;;27.30;;
84818;SDS011;75053;51.080;13.712;2024-01-10T00:23:39;82.13;;;31.20;;
84818;SDS011;75053;51.080;13.712;2024-01-10T00:26:04;74.83;;;32.63;;
84818;SDS011;75053;51.080;13.712;2024-01-10T00:28:30;79.70;;;33.23;;
84818;SDS011;75053;51.080;13.712;2024-01-10T00:30:55;85.57;;;33.73;;
84818;SDS011;75053;51.080;13.712;2024-01-10T00:33:20;77.47;;;30.83;;
84818;SDS011;75053;51.080;13.712;2024-01-10T00:35:46;67.93;;;29.53;;
84818;SDS011;75053;51.080;13.712;2024-01-10T00:38:11;71.20;;;28.70;;
84818;SDS011;75053;51.080;13.712;2024-01-10T00:40:38;77.90;;;31.80;;
84818;SDS011;75053;51.080;13.712;2024-01-10T00:43:04;73.43;;;31.53;;
84818;SDS011;75053;51.080;13.712;2024-01-10T00:45:29;69.87;;;30.00;;
84818;SDS011;75053;51.080;13.712;2024-01-10T00:47:55;81.30;;;31.53;;
84818;SDS011;75053;51.080;13.712;2024-01-10T00:50:20;75.63;;;29.67;;
84818;SDS011;75053;51.080;13.712;2024-01-10T00:52:46;83.27;;;32.10;;
84818;SDS011;75053;51.080;13.712;2024-01-10T00:55:12;67.33;;;29.23;;
84818;SDS011;75053;51.080;13.712;2024-01-10T00:57:40;61.63;;;27.73;;
84818;SDS011;75053;51.080;13.712;2024-01-10T01:00:06;64.10;;;28.13;;
84818;SDS011;75053;51.080;13.712;2024-01-10T01:02:33;61.50;;;27.73;;
84818;SDS011;75053;51.080;13.712;2024-01-10T01:04:58;79.10;;;28.47;;
84818;SDS011;75053;51.080;13.712;2024-01-10T01:07:23;68.20;;;29.43;;
84818;SDS011;75053;51.080;13.712;2024-01-10T01:09:49;72.07;;;28.77;;
84818;SDS011;75053;51.080;13.712;2024-01-10T01:12:14;76.47;;;28.77;;
84818;SDS011;75053;51.080;13.712;2024-01-10T01:14:41;63.47;;;27.17;;
84818;SDS011;75053;51.080;13.712;2024-01-10T01:17:06;67.67;;;30.43;;
84818;SDS011;75053;51.080;13.712;2024-01-10T01:19:32;57.70;;;28.33;;
84818;SDS011;75053;51.080;13.712;2024-01-10T01:21:57;62.83;;;28.03;;
84818;SDS011;75053;51.080;13.712;2024-01-10T01:24:22;66.83;;;28.10;;
84818;SDS011;75053;51.080;13.712;2024-01-10T01:26:48;74.60;;;26.30;;
84818;SDS011;75053;51.080;13.712;2024-01-10T01:29:13;90.23;;;31.43;;
84818;SDS011;75053;51.080;13.712;2024-01-10T01:31:39;80.83;;;30.33;;
84818;SDS011;75053;51.080;13.712;2024-01-10T01:34:04;74.23;;;30.13;;
84818;SDS011;75053;51.080;13.712;2024-01-10T01:36:30;74.43;;;30.37;;
84818;SDS011;75053;51.080;13.712;2024-01-10T01:38:55;67.93;;;27.20;;
84818;SDS011;75053;51.080;13.712;2024-01-10T01:41:21;75.70;;;29.97;;
84818;SDS011;75053;51.080;13.712;2024-01-10T01:43:46;62.27;;;28.53;;
84818;SDS011;75053;51.080;13.712;2024-01-10T01:46:12;60.90;;;27.50;;
84818;SDS011;75053;51.080;13.712;2024-01-10T01:48:38;65.53;;;28.97;;
84818;SDS011;75053;51.080;13.712;2024-01-10T01:51:06;62.73;;;27.43;;
84818;SDS011;75053;51.080;13.712;2024-01-10T01:53:34;73.57;;;28.87;;
84818;SDS011;75053;51.080;13.712;2024-01-10T01:56:02;58.00;;;27.30;;
84818;SDS011;75053;51.080;13.712;2024-01-10T01:58:30;68.80;;;30.43;;
84818;SDS011;75053;51.080;13.712;2024-01-10T02:00:56;65.03;;;26.90;;
84818;SDS011;75053;51.080;13.712;2024-01-10T02:03:22;72.97;;;30.27;;
84818;SDS011;75053;51.080;13.712;2024-01-10T02:05:47;64.77;;;28.90;;
84818;SDS011;75053;51.080;13.712;2024-01-10T02:08:13;65.33;;;27.90;;
84818;SDS011;75053;51.080;13.712;2024-01-10T02:10:39;72.63;;;29.77;;
84818;SDS011;75053;51.080;13.712;2024-01-10T02:13:05;66.90;;;30.07;;
84818;SDS011;75053;51.080;13.712;2024-01-10T02:15:31;63.77;;;28.97;;
84818;SDS011;75053;51.080;13.712;2024-01-10T02:17:56;64.00;;;28.23;;
84818;SDS011;75053;51.080;13.712;2024-01-10T02:20:22;62.10;;;28.07;;
84818;SDS011;75053;51.080;13.712;2024-01-10T02:22:47;77.87;;;29.83;;
84818;SDS011;75053;51.080;13.712;2024-01-10T02:25:15;53.77;;;26.27;;
84818;SDS011;75053;51.080;13.712;2024-01-10T02:27:41;63.53;;;28.70;;
84818;SDS011;75053;51.080;13.712;2024-01-10T02:30:07;60.47;;;26.83;;
84818;SDS011;75053;51.080;13.712;2024-01-10T02:32:34;64.63;;;28.23;;
84818;SDS011;75053;51.080;13.712;2024-01-10T02:35:00;62.73;;;28.13;;
84818;SDS011;75053;51.080;13.712;2024-01-10T02:37:25;54.87;;;26.30;;
84818;SDS011;75053;51.080;13.712;2024-01-10T02:39:51;55.37;;;27.40;;
84818;SDS011;75053;51.080;13.712;2024-01-10T02:42:17;75.00;;;27.10;;
84818;SDS011;75053;51.080;13.712;2024-01-10T02:44:43;61.10;;;28.03;;
84818;SDS011;75053;51.080;13.712;2024-01-10T02:47:09;56.87;;;26.40;;
84818;SDS011;75053;51.080;13.712;2024-01-10T02:49:36;61.63;;;27.00;;
84818;SDS011;75053;51.080;13.712;2024-01-10T02:52:02;68.70;;;29.10;;
84818;SDS011;75053;51.080;13.712;2024-01-10T02:54:27;61.97;;;27.20;;
84818;SDS011;75053;51.080;13.712;2024-01-10T02:56:52;60.97;;;28.27;;
84818;SDS011;75053;51.080;13.712;2024-01-10T02:59:18;60.93;;;28.50;;
84818;SDS011;75053;51.080;13.712;2024-01-10T03:01:43;67.77;;;28.23;;
84818;SDS011;75053;51.080;13.712;2024-01-10T03:04:09;74.43;;;29.27;;
84818;SDS011;75053;51.080;13.712;2024-01-10T03:06:34;68.33;;;27.33;;
84818;SDS011;75053;51.080;13.712;2024-01-10T03:09:00;60.40;;;27.70;;
84818;SDS011;75053;51.080;13.712;2024-01-10T03:11:26;65.80;;;26.43;;
84818;SDS011;75053;51.080;13.712;2024-01-10T03:14:00;67.47;;;27.27;;
84818;SDS011;75053;51.080;13.712;2024-01-10T03:16:27;64.77;;;26.53;;
84818;SDS011;75053;51.080;13.712;2024-01-10T03:18:52;62.20;;;28.30;;
84818;SDS011;75053;51.080;13.712;2024-01-10T03:21:18;58.87;;;26.77;;
84818;SDS011;75053;51.080;13.712;2024-01-10T03:23:59;64.13;;;27.93;;
84818;SDS011;75053;51.080;13.712;2024-01-10T03:26:26;69.20;;;27.47;;
84818;SDS011;75053;51.080;13.712;2024-01-10T03:28:53;72.63;;;29.27;;
84818;SDS011;75053;51.080;13.712;2024-01-10T03:31:19;67.53;;;28.43;;
84818;SDS011;75053;51.080;13.712;2024-01-10T03:33:44;66.20;;;28.80;;
84818;SDS011;75053;51.080;13.712;2024-01-10T03:36:15;70.83;;;29.20;;
84818;SDS011;75053;51.080;13.712;2024-01-10T03:38:41;61.37;;;27.23;;
84818;SDS011;75053;51.080;13.712;2024-01-10T03:41:13;59.97;;;28.63;;
84818;SDS011;75053;51.080;13.712;2024-01-10T03:43:39;62.53;;;28.20;;
84818;SDS011;75053;51.080;13.712;2024-01-10T03:46:05;64.07;;;28.13;;
84818;SDS011;75053;51.080;13.712;2024-01-10T03:48:31;66.13;;;27.67;;
84818;SDS011;75053;51.080;13.712;2024-01-10T03:50:56;60.23;;;27.57;;
84818;SDS011;75053;51.080;13.712;2024-01-10T03:53:21;62.87;;;29.03;;
84818;SDS011;75053;51.080;13.712;2024-01-10T03:55:47;63.70;;;27.73;;
84818;SDS011;75053;51.080;13.712;2024-01-10T03:58:12;71.63;;;29.10;;
84818;SDS011;75053;51.080;13.712;2024-01-10T04:00:38;68.83;;;29.20;;
84818;SDS011;75053;51.080;13.712;2024-01-10T04:03:03;76.13;;;32.40;;
84818;SDS011;75053;51.080;13.712;2024-01-10T04:05:29;72.70;;;30.23;;
84818;SDS011;75053;51.080;13.712;2024-01-10T04:07:54;65.77;;;27.60;;
84818;SDS011;75053;51.080;13.712;2024-01-10T04:10:22;77.93;;;30.80;;
84818;SDS011;75053;51.080;13.712;2024-01-10T04:12:47;71.40;;;29.63;;
84818;SDS011;75053;51.080;13.712;2024-01-10T04:15:13;66.20;;;28.60;;
84818;SDS011;75053;51.080;13.712;2024-01-10T04:17:39;65.63;;;28.30;;
84818;SDS011;75053;51.080;13.712;2024-01-10T04:20:04;71.57;;;31.07;;
84818;SDS011;75053;51.080;13.712;2024-01-10T04:22:30;73.13;;;31.00;;
84818;SDS011;75053;51.080;13.712;2024-01-10T04:25:00;77.67;;;30.03;;
84818;SDS011;75053;51.080;13.712;2024-01-10T04:27:26;78.80;;;31.60;;
84818;SDS011;75053;51.080;13.712;2024-01-10T04:29:52;77.23;;;29.40;;
84818;SDS011;75053;51.080;13.712;2024-01-10T04:32:18;80.93;;;32.47;;
84818;SDS011;75053;51.080;13.712;2024-01-10T04:34:44;85.10;;;30.27;;
84818;SDS011;75053;51.080;13.712;2024-01-10T04:37:10;85.00;;;30.77;;
84818;SDS011;75053;51.080;13.712;2024-01-10T04:39:36;62.57;;;29.07;;
84818;SDS011;75053;51.080;13.712;2024-01-10T04:42:03;69.27;;;30.93;;
84818;SDS011;75053;51.080;13.712;2024-01-10T04:44:30;76.33;;;30.80;;
84818;SDS011;75053;51.080;13.712;2024-01-10T04:46:55;71.07;;;28.00;;
84818;SDS011;75053;51.080;13.712;2024-01-10T04:49:21;65.67;;;28.90;;
84818;SDS011;75053;51.080;13.712;2024-01-10T04:51:46;66.07;;;28.67;;
84818;SDS011;75053;51.080;13.712;2024-01-10T04:54:12;59.97;;;27.50;;
84818;SDS011;75053;51.080;13.712;2024-01-10T04:56:40;68.20;;;28.10;;
84818;SDS011;75053;51.080;13.712;2024-01-10T04:59:05;70.20;;;27.77;;
84818;SDS011;75053;51.080;13.712;2024-01-10T05:01:31;60.10;;;27.73;;
84818;SDS011;75053;51.080;13.712;2024-01-10T05:03:57;60.57;;;26.73;;
84818;SDS011;75053;51.080;13.712;2024-01-10T05:06:22;66.07;;;28.10;;
84818;SDS011;75053;51.080;13.712;2024-01-10T05:08:48;61.90;;;24.60;;
84818;SDS011;75053;51.080;13.712;2024-01-10T05:11:14;69.77;;;29.17;;
84818;SDS011;75053;51.080;13.712;2024-01-10T05:13:40;63.37;;;26.27;;
84818;SDS011;75053;51.080;13.712;2024-01-10T05:16:06;64.00;;;28.90;;
84818;SDS011;75053;51.080;13.712;2024-01-10T05:18:32;59.57;;;27.67;;
84818;SDS011;75053;51.080;13.712;2024-01-10T05:20:58;59.77;;;28.03;;
84818;SDS011;75053;51.080;13.712;2024-01-10T05:23:24;60.77;;;27.00;;
84818;SDS011;75053;51.080;13.712;2024-01-10T05:25:49;65.33;;;26.77;;
84818;SDS011;75053;51.080;13.712;2024-01-10T05:28:15;56.43;;;26.00;;
84818;SDS011;75053;51.080;13.712;2024-01-10T05:30:41;64.50;;;26.93;;
84818;SDS011;75053;51.080;13.712;2024-01-10T05:33:08;63.13;;;25.83;;
84818;SDS011;75053;51.080;13.712;2024-01-10T05:35:33;63.10;;;29.07;;
84818;SDS011;75053;51.080;13.712;2024-01-10T05:38:01;62.03;;;27.00;;
84818;SDS011;75053;51.080;13.712;2024-01-10T05:40:28;56.73;;;27.10;;
84818;SDS011;75053;51.080;13.712;2024-01-10T05:42:57;64.77;;;27.20;;
84818;SDS011;75053;51.080;13.712;2024-01-10T05:45:24;61.20;;;24.93;;
84818;SDS011;75053;51.080;13.712;2024-01-10T05:47:52;54.33;;;27.57;;
84818;SDS011;75053;51.080;13.712;2024-01-10T05:50:17;62.80;;;28.23;;
84818;SDS011;75053;51.080;13.712;2024-01-10T05:52:43;70.53;;;28.80;;
84818;SDS011;75053;51.080;13.712;2024-01-10T05:55:09;64.30;;;27.27;;
84818;SDS011;75053;51.080;13.712;2024-01-10T05:57:36;60.63;;;26.03;;
84818;SDS011;75053;51.080;13.712;2024-01-10T06:00:02;71.40;;;28.33;;
84818;SDS011;75053;51.080;13.712;2024-01-10T06:02:28;58.60;;;25.50;;
84818;SDS011;75053;51.080;13.712;2024-01-10T06:04:53;63.90;;;26.73;;
84818;SDS011;75053;51.080;13.712;2024-01-10T06:07:19;61.50;;;27.27;;
84818;SDS011;75053;51.080;13.712;2024-01-10T06:09:46;65.07;;;27.80;;
84818;SDS011;75053;51.080;13.712;2024-01-10T06:12:11;63.57;;;29.60;;
84818;SDS011;75053;51.080;13.712;2024-01-10T06:14:37;64.50;;;28.90;;
84818;SDS011;75053;51.080;13.712;2024-01-10T06:17:02;74.07;;;27.23;;
84818;SDS011;75053;51.080;13.712;2024-01-10T06:19:29;64.63;;;26.67;;
84818;SDS011;75053;51.080;13.712;2024-01-10T06:21:58;58.43;;;25.10;;
84818;SDS011;75053;51.080;13.712;2024-01-10T06:24:25;73.67;;;29.17;;
84818;SDS011;75053;51.080;13.712;2024-01-10T06:26:51;60.53;;;28.07;;
84818;SDS011;75053;51.080;13.712;2024-01-10T06:29:17;68.37;;;28.83;;
84818;SDS011;75053;51.080;13.712;2024-01-10T06:31:43;62.10;;;28.70;;
84818;SDS011;75053;51.080;13.712;2024-01-10T06:34:09;54.90;;;25.57;;
84818;SDS011;75053;51.080;13.712;2024-01-10T06:36:34;65.83;;;28.37;;
84818;SDS011;75053;51.080;13.712;2024-01-10T06:39:00;69.67;;;27.57;;
84818;SDS011;75053;51.080;13.712;2024-01-10T06:41:26;70.10;;;29.53;;
84818;SDS011;75053;51.080;13.712;2024-01-10T06:43:52;66.67;;;28.83;;
84818;SDS011;75053;51.080;13.712;2024-01-10T06:46:18;68.07;;;28.37;;
84818;SDS011;75053;51.080;13.712;2024-01-10T06:48:43;62.23;;;28.37;;
84818;SDS011;75053;51.080;13.712;2024-01-10T06:51:09;74.93;;;30.03;;
84818;SDS011;75053;51.080;13.712;2024-01-10T06:53:37;64.13;;;27.73;;
84818;SDS011;75053;51.080;13.712;2024-01-10T06:56:03;68.77;;;28.73;;
84818;SDS011;75053;51.080;13.712;2024-01-10T06:58:30;63.47;;;27.30;;
84818;SDS011;75053;51.080;13.712;2024-01-10T07:00:55;57.57;;;26.10;;
84818;SDS011;75053;51.080;13.712;2024-01-10T07:03:20;68.20;;;27.30;;
84818;SDS011;75053;51.080;13.712;2024-01-10T07:05:46;57.07;;;26.50;;
84818;SDS011;75053;51.080;13.712;2024-01-10T07:08:14;75.73;;;27.87;;
84818;SDS011;75053;51.080;13.712;2024-01-10T07:10:41;71.03;;;28.30;;
84818;SDS011;75053;51.080;13.712;2024-01-10T07:13:07;65.97;;;28.37;;
84818;SDS011;75053;51.080;13.712;2024-01-10T07:15:32;73.17;;;29.43;;
84818;SDS011;75053;51.080;13.712;2024-01-10T07:17:58;61.77;;;27.77;;
84818;SDS011;75053;51.080;13.712;2024-01-10T07:20:24;66.73;;;31.00;;
84818;SDS011;75053;51.080;13.712;2024-01-10T07:22:52;62.87;;;28.17;;
84818;SDS011;75053;51.080;13.712;2024-01-10T07:25:18;57.77;;;28.50;;
84818;SDS011;75053;51.080;13.712;2024-01-10T07:27:50;63.03;;;30.40;;
84818;SDS011;75053;51.080;13.712;2024-01-10T07:30:16;74.27;;;30.70;;
84818;SDS011;75053;51.080;13.712;2024-01-10T07:32:42;66.97;;;29.93;;
84818;SDS011;75053;51.080;13.712;2024-01-10T07:35:09;76.50;;;30.07;;
84818;SDS011;75053;51.080;13.712;2024-01-10T07:37:36;81.87;;;32.10;;
84818;SDS011;75053;51.080;13.712;2024-01-10T07:40:02;111.57;;;31.50;;
84818;SDS011;75053;51.080;13.712;2024-01-10T07:42:30;74.57;;;28.53;;
84818;SDS011;75053;51.080;13.712;2024-01-10T07:44:56;60.47;;;28.90;;
84818;SDS011;75053;51.080;13.712;2024-01-10T07:47:37;67.20;;;30.33;;
84818;SDS011;75053;51.080;13.712;2024-01-10T07:50:06;77.47;;;31.00;;
84818;SDS011;75053;51.080;13.712;2024-01-10T07:52:33;74.67;;;31.13;;
84818;SDS011;75053;51.080;13.712;2024-01-10T07:54:59;72.00;;;29.70;;
84818;SDS011;75053;51.080;13.712;2024-01-10T07:57:26;70.13;;;30.10;;
84818;SDS011;75053;51.080;13.712;2024-01-10T07:59:52;71.10;;;30.77;;
84818;SDS011;75053;51.080;13.712;2024-01-10T08:02:18;63.97;;;29.63;;
84818;SDS011;75053;51.080;13.712;2024-01-10T08:04:43;68.30;;;29.73;;
84818;SDS011;75053;51.080;13.712;2024-01-10T08:07:09;55.87;;;26.77;;
84818;SDS011;75053;51.080;13.712;2024-01-10T08:09:35;69.90;;;29.03;;
84818;SDS011;75053;51.080;13.712;2024-01-10T08:12:01;71.10;;;30.30;;
84818;SDS011;75053;51.080;13.712;2024-01-10T08:14:31;77.63;;;31.00;;
84818;SDS011;75053;51.080;13.712;2024-01-10T08:16:56;74.13;;;31.30;;
84818;SDS011;75053;51.080;13.712;2024-01-10T08:19:26;70.77;;;31.57;;
84818;SDS011;75053;51.080;13.712;2024-01-10T08:21:52;70.27;;;30.83;;
84818;SDS011;75053;51.080;13.712;2024-01-10T08:24:19;78.50;;;32.57;;
84818;SDS011;75053;51.080;13.712;2024-01-10T08:26:44;76.80;;;32.13;;
84818;SDS011;75053;51.080;13.712;2024-01-10T08:29:10;82.07;;;35.17;;
84818;SDS011;75053;51.080;13.712;2024-01-10T08:31:35;73.97;;;32.03;;
84818;SDS011;75053;51.080;13.712;2024-01-10T08:34:01;67.37;;;30.77;;
84818;SDS011;75053;51.080;13.712;2024-01-10T08:36:28;72.40;;;31.87;;
84818;SDS011;75053;51.080;13.712;2024-01-10T08:38:53;73.87;;;32.53;;
84818;SDS011;75053;51.080;13.712;2024-01-10T08:41:19;71.53;;;32.93;;
84818;SDS011;75053;51.080;13.712;2024-01-10T08:43:46;73.90;;;33.33;;
84818;SDS011;75053;51.080;13.712;2024-01-10T08:46:12;76.17;;;34.53;;
84818;SDS011;75053;51.080;13.712;2024-01-10T08:48:37;77.43;;;33.90;;
84818;SDS011;75053;51.080;13.712;2024-01-10T08:51:12;69.40;;;33.20;;
84818;SDS011;75053;51.080;13.712;2024-01-10T08:53:41;70.53;;;32.07;;
84818;SDS011;75053;51.080;13.712;2024-01-10T08:56:07;72.80;;;31.93;;
84818;SDS011;75053;51.080;13.712;2024-01-10T08:58:33;69.23;;;31.93;;
84818;SDS011;75053;51.080;13.712;2024-01-10T09:00:59;64.33;;;31.73;;
84818;SDS011;75053;51.080;13.712;2024-01-10T09:03:24;62.80;;;30.13;;
84818;SDS011;75053;51.080;13.712;2024-01-10T09:05:50;74.73;;;33.73;;
84818;SDS011;75053;51.080;13.712;2024-01-10T09:08:15;75.67;;;34.37;;
84818;SDS011;75053;51.080;13.712;2024-01-10T09:10:41;76.50;;;32.70;;
84818;SDS011;75053;51.080;13.712;2024-01-10T09:13:06;81.93;;;35.10;;
84818;SDS011;75053;51.080;13.712;2024-01-10T09:15:32;69.93;;;33.03;;
84818;SDS011;75053;51.080;13.712;2024-01-10T09:17:57;69.47;;;33.07;;
84818;SDS011;75053;51.080;13.712;2024-01-10T09:20:23;64.33;;;32.50;;
84818;SDS011;75053;51.080;13.712;2024-01-10T09:22:48;80.67;;;33.80;;
84818;SDS011;75053;51.080;13.712;2024-01-10T09:25:14;61.83;;;31.70;;
84818;SDS011;75053;51.080;13.712;2024-01-10T09:27:39;71.37;;;32.53;;
84818;SDS011;75053;51.080;13.712;2024-01-10T09:30:12;76.97;;;34.17;;
84818;SDS011;75053;51.080;13.712;2024-01-10T09:32:38;77.90;;;33.30;;
84818;SDS011;75053;51.080;13.712;2024-01-10T09:35:04;76.03;;;34.73;;
84818;SDS011;75053;51.080;13.712;2024-01-10T09:37:30;64.93;;;34.03;;
84818;SDS011;75053;51.080;13.712;2024-01-10T09:39:55;68.43;;;31.53;;
84818;SDS011;75053;51.080;13.712;2024-01-10T09:42:21;80.60;;;34.00;;
84818;SDS011;75053;51.080;13.712;2024-01-10T09:44:50;61.30;;;31.83;;
84818;SDS011;75053;51.080;13.712;2024-01-10T09:47:16;60.37;;;30.10;;
84818;SDS011;75053;51.080;13.712;2024-01-10T09:49:44;76.07;;;32.30;;
84818;SDS011;75053;51.080;13.712;2024-01-10T09:52:13;60.80;;;28.50;;
84818;SDS011;75053;51.080;13.712;2024-01-10T09:54:45;61.03;;;29.73;;
84818;SDS011;75053;51.080;13.712;2024-01-10T09:57:12;77.73;;;30.77;;
84818;SDS011;75053;51.080;13.712;2024-01-10T09:59:41;54.50;;;29.00;;
84818;SDS011;75053;51.080;13.712;2024-01-10T10:02:08;62.20;;;28.83;;
84818;SDS011;75053;51.080;13.712;2024-01-10T10:04:34;60.17;;;28.50;;
84818;SDS011;75053;51.080;13.712;2024-01-10T10:07:01;61.10;;;29.87;;
84818;SDS011;75053;51.080;13.712;2024-01-10T10:09:27;58.63;;;27.60;;
84818;SDS011;75053;51.080;13.712;2024-01-10T10:11:54;62.80;;;29.00;;
84818;SDS011;75053;51.080;13.712;2024-01-10T10:14:20;57.77;;;30.40;;
84818;SDS011;75053;51.080;13.712;2024-01-10T10:16:47;61.03;;;29.17;;
84818;SDS011;75053;51.080;13.712;2024-01-10T10:19:13;55.50;;;28.00;;
84818;SDS011;75053;51.080;13.712;2024-01-10T10:21:48;59.83;;;28.97;;
84818;SDS011;75053;51.080;13.712;2024-01-10T10:24:16;61.40;;;28.80;;
84818;SDS011;75053;51.080;13.712;2024-01-10T10:26:43;55.07;;;27.40;;
84818;SDS011;75053;51.080;13.712;2024-01-10T10:29:09;57.17;;;28.20;;
84818;SDS011;75053;51.080;13.712;2024-01-10T10:31:34;51.43;;;28.53;;
84818;SDS011;75053;51.080;13.712;2024-01-10T10:34:00;51.87;;;25.97;;
84818;SDS011;75053;51.080;13.712;2024-01-10T10:36:30;49.13;;;26.37;;
84818;SDS011;75053;51.080;13.712;2024-01-10T10:38:58;60.53;;;26.87;;
84818;SDS011;75053;51.080;13.712;2024-01-10T10:41:26;47.37;;;25.53;;
84818;SDS011;75053;51.080;13.712;2024-01-10T10:43:55;45.67;;;24.97;;
84818;SDS011;75053;51.080;13.712;2024-01-10T10:46:20;51.53;;;26.60;;
84818;SDS011;75053;51.080;13.712;2024-01-10T10:48:48;51.83;;;26.80;;
84818;SDS011;75053;51.080;13.712;2024-01-10T10:51:27;44.83;;;24.03;;
84818;SDS011;75053;51.080;13.712;2024-01-10T10:54:02;49.00;;;25.47;;
84818;SDS011;75053;51.080;13.712;2024-01-10T10:56:29;49.30;;;24.73;;
84818;SDS011;75053;51.080;13.712;2024-01-10T10:58:56;50.87;;;24.77;;
84818;SDS011;75053;51.080;13.712;2024-01-10T11:01:24;45.07;;;24.13;;
84818;SDS011;75053;51.080;13.712;2024-01-10T11:03:52;47.80;;;24.67;;
84818;SDS011;75053;51.080;13.712;2024-01-10T11:06:18;41.83;;;23.70;;
84818;SDS011;75053;51.080;13.712;2024-01-10T11:08:50;44.87;;;24.43;;
84818;SDS011;75053;51.080;13.712;2024-01-10T11:19:58;48.63;;;25.03;;
84818;SDS011;75053;51.080;13.712;2024-01-10T11:25:14;44.70;;;25.37;;
84818;SDS011;75053;51.080;13.712;2024-01-10T11:27:41;42.37;;;23.27;;
84818;SDS011;75053;51.080;13.712;2024-01-10T11:30:08;48.10;;;25.47;;
84818;SDS011;75053;51.080;13.712;2024-01-10T11:32:35;46.40;;;24.67;;
84818;SDS011;75053;51.080;13.712;2024-01-10T11:35:05;49.73;;;24.40;;
84818;SDS011;75053;51.080;13.712;2024-01-10T11:37:44;52.07;;;25.50;;
84818;SDS011;75053;51.080;13.712;2024-01-10T11:40:14;44.53;;;25.77;;
84818;SDS011;75053;51.080;13.712;2024-01-10T11:42:44;45.47;;;24.37;;
84818;SDS011;75053;51.080;13.712;2024-01-10T11:47:55;43.97;;;23.83;;
84818;SDS011;75053;51.080;13.712;2024-01-10T11:50:21;50.77;;;25.20;;
84818;SDS011;75053;51.080;13.712;2024-01-10T11:52:52;46.40;;;23.83;;
84818;SDS011;75053;51.080;13.712;2024-01-10T11:58:16;42.00;;;23.57;;
84818;SDS011;75053;51.080;13.712;2024-01-10T12:00:42;43.47;;;23.17;;
84818;SDS011;75053;51.080;13.712;2024-01-10T12:03:09;36.43;;;21.93;;
84818;SDS011;75053;51.080;13.712;2024-01-10T12:05:36;45.63;;;23.07;;
84818;SDS011;75053;51.080;13.712;2024-01-10T12:08:05;38.10;;;22.43;;
84818;SDS011;75053;51.080;13.712;2024-01-10T12:10:32;41.80;;;21.87;;
84818;SDS011;75053;51.080;13.712;2024-01-10T12:13:01;40.90;;;22.37;;
84818;SDS011;75053;51.080;13.712;2024-01-10T12:15:29;40.93;;;22.13;;
84818;SDS011;75053;51.080;13.712;2024-01-10T12:17:55;44.37;;;20.63;;
84818;SDS011;75053;51.080;13.712;2024-01-10T12:20:21;40.70;;;21.87;;
84818;SDS011;75053;51.080;13.712;2024-01-10T12:22:46;45.03;;;22.40;;
84818;SDS011;75053;51.080;13.712;2024-01-10T12:25:12;37.97;;;21.67;;
84818;SDS011;75053;51.080;13.712;2024-01-10T12:27:40;40.93;;;21.57;;
84818;SDS011;75053;51.080;13.712;2024-01-10T12:30:05;43.53;;;22.23;;
84818;SDS011;75053;51.080;13.712;2024-01-10T12:32:32;39.27;;;22.13;;
84818;SDS011;75053;51.080;13.712;2024-01-10T12:35:01;37.70;;;21.30;;
84818;SDS011;75053;51.080;13.712;2024-01-10T12:37:27;34.77;;;20.90;;
84818;SDS011;75053;51.080;13.712;2024-01-10T12:39:53;40.93;;;23.10;;
84818;SDS011;75053;51.080;13.712;2024-01-10T12:42:19;39.67;;;21.30;;
84818;SDS011;75053;51.080;13.712;2024-01-10T12:44:44;40.30;;;23.33;;
84818;SDS011;75053;51.080;13.712;2024-01-10T12:47:20;37.50;;;20.70;;
84818;SDS011;75053;51.080;13.712;2024-01-10T12:49:47;38.13;;;22.40;;
84818;SDS011;75053;51.080;13.712;2024-01-10T12:52:13;39.23;;;21.90;;
84818;SDS011;75053;51.080;13.712;2024-01-10T12:54:39;35.10;;;20.90;;
84818;SDS011;75053;51.080;13.712;2024-01-10T12:57:05;31.27;;;19.13;;
84818;SDS011;75053;51.080;13.712;2024-01-10T12:59:32;39.60;;;20.87;;
84818;SDS011;75053;51.080;13.712;2024-01-10T13:01:57;31.90;;;19.43;;
84818;SDS011;75053;51.080;13.712;2024-01-10T13:04:23;41.83;;;19.40;;
84818;SDS011;75053;51.080;13.712;2024-01-10T13:06:50;42.10;;;21.63;;
84818;SDS011;75053;51.080;13.712;2024-01-10T13:09:16;36.00;;;21.13;;
84818;SDS011;75053;51.080;13.712;2024-01-10T13:11:41;33.57;;;19.03;;
84818;SDS011;75053;51.080;13.712;2024-01-10T13:14:07;37.70;;;20.83;;
84818;SDS011;75053;51.080;13.712;2024-01-10T13:16:32;38.53;;;21.47;;
84818;SDS011;75053;51.080;13.712;2024-01-10T13:18:58;41.87;;;18.17;;
84818;SDS011;75053;51.080;13.712;2024-01-10T13:21:24;38.73;;;18.97;;
84818;SDS011;75053;51.080;13.712;2024-01-10T13:23:50;34.33;;;17.40;;
84818;SDS011;75053;51.080;13.712;2024-01-10T13:26:16;31.97;;;18.13;;
84818;SDS011;75053;51.080;13.712;2024-01-10T13:28:42;26.77;;;15.97;;
84818;SDS011;75053;51.080;13.712;2024-01-10T13:31:08;25.70;;;15.23;;
84818;SDS011;75053;51.080;13.712;2024-01-10T13:33:34;30.93;;;16.43;;
84818;SDS011;75053;51.080;13.712;2024-01-10T13:36:00;26.90;;;15.93;;
84818;SDS011;75053;51.080;13.712;2024-01-10T13:38:26;24.50;;;14.73;;
84818;SDS011;75053;51.080;13.712;2024-01-10T13:40:51;34.95;;;18.85;;
84818;SDS011;75053;51.080;13.712;2024-01-10T13:43:17;43.87;;;22.37;;
84818;SDS011;75053;51.080;13.712;2024-01-10T13:45:42;50.37;;;23.17;;
84818;SDS011;75053;51.080;13.712;2024-01-10T13:48:08;41.73;;;21.53;;
84818;SDS011;75053;51.080;13.712;2024-01-10T13:50:35;39.83;;;22.63;;
84818;SDS011;75053;51.080;13.712;2024-01-10T13:53:01;47.23;;;22.60;;
84818;SDS011;75053;51.080;13.712;2024-01-10T13:55:32;29.73;;;17.37;;
84818;SDS011;75053;51.080;13.712;2024-01-10T13:57:57;23.20;;;12.03;;
84818;SDS011;75053;51.080;13.712;2024-01-10T14:00:23;9.33;;;4.97;;
84818;SDS011;75053;51.080;13.712;2024-01-10T14:02:49;6.60;;;4.50;;
84818;SDS011;75053;51.080;13.712;2024-01-10T14:05:14;7.10;;;5.10;;
84818;SDS011;75053;51.080;13.712;2024-01-10T14:07:40;11.67;;;5.67;;
84818;SDS011;75053;51.080;13.712;2024-01-10T14:10:09;6.87;;;5.03;;
84818;SDS011;75053;51.080;13.712;2024-01-10T14:12:36;9.27;;;5.50;;
84818;SDS011;75053;51.080;13.712;2024-01-10T14:15:01;6.77;;;4.80;;
84818;SDS011;75053;51.080;13.712;2024-01-10T14:17:27;14.00;;;5.00;;
84818;SDS011;75053;51.080;13.712;2024-01-10T14:19:53;8.60;;;5.23;;
84818;SDS011;75053;51.080;13.712;2024-01-10T14:22:18;10.33;;;5.67;;